Olean, NY

1:58 PM EDT on May 22, 2017 (GMT -0400)
Cattaraugus County-Olean

Weather History for KOLE - November, 2012

Change the Weather History Date:

Thursday, November 1, 2012

  Actual Average (KBFD) Record (KBFD)
Temperature  
Mean Temperature 36 °F -  
Max Temperature 39 °F 53 °F 70 °F (1974)
Min Temperature 33 °F 36 °F 20 °F (1976)
Degree Days  
Heating Degree Days 29    
Moisture  
Dew Point 36 °F    
Average Humidity 98    
Maximum Humidity 100    
Minimum Humidity 87    
Precipitation  
Precipitation 0.00 in - - ()
Sea Level Pressure  
Sea Level Pressure 29.53 in    
Wind  
Wind Speed 6 mph ()    
Max Wind Speed 10 mph    
Max Gust Speed 22 mph    
Visibility 6.3 miles    
Events Rain    
Averages and records for this station are not official NWS values.
T = Trace of Precipitation, MM = Missing Value Source: Averaged Metar Reports

Daily Weather History Graph

Daily Weather History Graph

Search for Another Location

Airport or City:

Trip Planner

Search our weather history database for the weather conditions in past years. The results will help you decide how hot, cold, wet, or windy it might be!

Date:

Astronomy

Nov. 01, 2012 Rise Set
Actual Time 7:47 AM EDT 6:06 PM EDT
Civil Twilight 7:17 AM EDT 6:35 PM EDT
Nautical Twilight 6:44 AM EDT 7:08 PM EDT
Astronomical Twilight 6:12 AM EDT 7:41 PM EDT
Moon 7:59 PM EDT (11/1) 10:20 AM EDT (11/1)
Length of Visible Light 11h 17m
Length of Day
10h 19m
Waning Gibbous, 93% of the Moon is Illuminated
Nov 1
Waning Gibbous
Nov 6
Last Quarter
Nov 13
New
Nov 20
First Quarter
Nov 28
Full

Hourly Weather History & Observations

Time (EDT) Temp. Windchill Dew Point Humidity Pressure Visibility Wind Dir Wind Speed Gust Speed Precip Events Conditions
12:15 AM 37.4 °F 32.8 °F 37.4 °F 100% 29.45 in 4.0 mi West 5.8 mph - N/A   Drizzle
12:35 AM 37.4 °F 32.8 °F 35.6 °F 93% 29.46 in 10.0 mi West 5.8 mph 20.7 mph N/A   Overcast
1:15 AM 35.6 °F 29.2 °F 35.6 °F 100% 29.46 in 5.0 mi WSW 8.1 mph - N/A   Drizzle
1:35 AM 35.6 °F 29.2 °F 35.6 °F 100% 29.46 in 5.0 mi WSW 8.1 mph - N/A   Drizzle
1:55 AM 35.6 °F 30.7 °F 35.6 °F 100% 29.46 in 5.0 mi WSW 5.8 mph - N/A   Drizzle
2:15 AM 35.6 °F 29.9 °F 35.6 °F 100% 29.46 in 7.0 mi West 6.9 mph - N/A   Drizzle
2:35 AM 35.6 °F 31.7 °F 35.6 °F 100% 29.46 in 7.0 mi West 4.6 mph - N/A   Drizzle
3:15 AM 35.6 °F 28.6 °F 35.6 °F 100% 29.46 in 5.0 mi WSW 9.2 mph - N/A   Drizzle
3:35 AM 35.6 °F 29.9 °F 35.6 °F 100% 29.46 in 4.0 mi WSW 6.9 mph - N/A   Drizzle
3:55 AM 35.6 °F 30.7 °F 35.6 °F 100% 29.46 in 3.0 mi WSW 5.8 mph - N/A   Drizzle
4:15 AM 35.6 °F 29.2 °F 35.6 °F 100% 29.46 in 4.0 mi WSW 8.1 mph - N/A   Drizzle
4:35 AM 35.6 °F 29.9 °F 35.6 °F 100% 29.47 in 4.0 mi WSW 6.9 mph - N/A   Drizzle
4:55 AM 35.6 °F 29.9 °F 35.6 °F 100% 29.47 in 5.0 mi WSW 6.9 mph - N/A   Drizzle
5:15 AM 35.6 °F 29.9 °F 35.6 °F 100% 29.47 in 5.0 mi WSW 6.9 mph - N/A   Drizzle
5:35 AM 35.6 °F 29.2 °F 35.6 °F 100% 29.47 in 5.0 mi West 8.1 mph - N/A   Light Drizzle
5:55 AM 35.6 °F 29.9 °F 35.6 °F 100% 29.47 in 5.0 mi WSW 6.9 mph - N/A   Light Drizzle
6:15 AM 35.6 °F 29.9 °F 35.6 °F 100% 29.47 in 4.0 mi West 6.9 mph 17.3 mph N/A   Drizzle
6:35 AM 35.6 °F 30.7 °F 35.6 °F 100% 29.48 in 4.0 mi WSW 5.8 mph - N/A   Drizzle
6:55 AM 35.6 °F 30.7 °F 35.6 °F 100% 29.48 in 5.0 mi West 5.8 mph - N/A   Light Drizzle
7:15 AM 35.6 °F 30.7 °F 35.6 °F 100% 29.48 in 5.0 mi WSW 5.8 mph - N/A   Drizzle
7:35 AM 35.6 °F 31.7 °F 35.6 °F 100% 29.49 in 4.0 mi WSW 4.6 mph - N/A   Drizzle
7:55 AM 35.6 °F 29.9 °F 35.6 °F 100% 29.49 in 5.0 mi West 6.9 mph - N/A   Drizzle
8:35 AM 35.6 °F 32.8 °F 35.6 °F 100% 29.51 in 5.0 mi WSW 3.5 mph - N/A   Drizzle
8:55 AM 35.6 °F 31.7 °F 35.6 °F 100% 29.51 in 3.0 mi West 4.6 mph - N/A   Drizzle
9:15 AM 37.4 °F 31.4 °F 37.4 °F 100% 29.51 in 4.0 mi West 8.1 mph - N/A   Light Drizzle
9:35 AM 37.4 °F 32.8 °F 37.4 °F 100% 29.51 in 4.0 mi West 5.8 mph - N/A   Drizzle
9:55 AM 37.4 °F 31.4 °F 37.4 °F 100% 29.52 in 4.0 mi WSW 8.1 mph 21.9 mph N/A   Light Drizzle
10:15 AM 37.4 °F 32.8 °F 37.4 °F 100% 29.52 in 5.0 mi WSW 5.8 mph - N/A   Overcast
10:35 AM 37.4 °F 30.8 °F 37.4 °F 100% 29.52 in 4.0 mi West 9.2 mph - N/A   Drizzle
10:55 AM 37.4 °F 34.9 °F 37.4 °F 100% 29.52 in 7.0 mi West 3.5 mph - N/A   Overcast
11:15 AM 37.4 °F 34.9 °F 37.4 °F 100% 29.53 in 5.0 mi West 3.5 mph - N/A   Drizzle
11:35 AM 37.4 °F 30.8 °F 37.4 °F 100% 29.53 in 4.0 mi West 9.2 mph - N/A   Drizzle
12:15 PM 39.2 °F 35.0 °F 37.4 °F 93% 29.53 in 7.0 mi West 5.8 mph - N/A   Light Drizzle
12:35 PM 39.2 °F 33.6 °F 37.4 °F 93% 29.52 in 10.0 mi West 8.1 mph - N/A   Overcast
12:55 PM 37.4 °F 33.8 °F 37.4 °F 100% 29.53 in 4.0 mi West 4.6 mph - N/A   Heavy Drizzle
1:15 PM 37.4 °F 30.3 °F 37.4 °F 100% 29.52 in 4.0 mi West 10.4 mph 18.4 mph N/A Rain Rain
1:35 PM 39.2 °F 37.0 °F 37.4 °F 93% 29.52 in 10.0 mi West 3.5 mph - N/A   Overcast
1:55 PM 37.4 °F 32.1 °F 37.4 °F 100% 29.52 in 4.0 mi West 6.9 mph - N/A Rain Rain
2:15 PM 39.2 °F 33.0 °F 37.4 °F 93% 29.52 in 10.0 mi West 9.2 mph - N/A   Overcast
2:35 PM 39.2 °F 33.6 °F 35.6 °F 87% 29.52 in 7.0 mi West 8.1 mph 17.3 mph N/A   Drizzle
2:55 PM 37.4 °F 30.8 °F 35.6 °F 93% 29.52 in 10.0 mi West 9.2 mph - N/A   Light Drizzle
3:15 PM 37.4 °F 32.1 °F 35.6 °F 93% 29.53 in 10.0 mi West 6.9 mph 19.6 mph N/A   Overcast
3:35 PM 37.4 °F 30.8 °F 35.6 °F 93% 29.53 in 10.0 mi West 9.2 mph 16.1 mph N/A   Overcast
3:55 PM 37.4 °F 32.8 °F 35.6 °F 93% 29.53 in 10.0 mi West 5.8 mph 18.4 mph N/A   Overcast
4:15 PM 37.4 °F 30.3 °F 35.6 °F 93% 29.53 in 10.0 mi West 10.4 mph 17.3 mph N/A   Overcast
4:35 PM 37.4 °F 31.4 °F 35.6 °F 93% 29.54 in 7.0 mi West 8.1 mph - N/A   Drizzle
4:55 PM 37.4 °F 32.8 °F 35.6 °F 93% 29.54 in 4.0 mi West 5.8 mph - N/A   Drizzle
5:15 PM 37.4 °F 31.4 °F 35.6 °F 93% 29.54 in 10.0 mi West 8.1 mph - N/A   Overcast
5:35 PM 35.6 °F 29.2 °F 35.6 °F 100% 29.55 in 7.0 mi West 8.1 mph - N/A   Drizzle
5:55 PM 35.6 °F 30.7 °F 35.6 °F 100% 29.55 in 10.0 mi West 5.8 mph - N/A   Drizzle
6:15 PM 35.6 °F 29.9 °F 35.6 °F 100% 29.56 in 5.0 mi West 6.9 mph - N/A   Drizzle
6:35 PM 35.6 °F 29.9 °F 35.6 °F 100% 29.57 in 7.0 mi West 6.9 mph - N/A   Drizzle
6:55 PM 35.6 °F 30.7 °F 35.6 °F 100% 29.58 in 7.0 mi West 5.8 mph - N/A   Drizzle
7:15 PM 35.6 °F 29.9 °F 35.6 °F 100% 29.59 in 7.0 mi West 6.9 mph - N/A   Light Drizzle
7:35 PM 35.6 °F 31.7 °F 35.6 °F 100% 29.59 in 10.0 mi WNW 4.6 mph - N/A   Light Drizzle
7:55 PM 35.6 °F 29.9 °F 35.6 °F 100% 29.59 in 10.0 mi West 6.9 mph - N/A   Overcast
8:15 PM 35.6 °F 30.7 °F 33.8 °F 93% 29.59 in 10.0 mi West 5.8 mph - N/A   Light Drizzle
8:35 PM 35.6 °F 32.8 °F 35.6 °F 100% 29.60 in 7.0 mi West 3.5 mph - N/A Rain Light Rain
8:55 PM 35.6 °F - 35.6 °F 100% 29.60 in 7.0 mi Calm Calm - N/A Rain Light Rain
9:15 PM 35.6 °F 32.8 °F 33.8 °F 93% 29.60 in 4.0 mi WNW 3.5 mph - N/A Rain Rain
9:35 PM 33.8 °F 30.8 °F 33.8 °F 100% 29.60 in 5.0 mi West 3.5 mph - N/A Rain Light Rain
9:55 PM 35.6 °F 32.8 °F 35.6 °F 100% 29.60 in 5.0 mi West 3.5 mph - N/A   Light Drizzle
10:15 PM 35.6 °F 30.7 °F 35.6 °F 100% 29.60 in 5.0 mi West 5.8 mph - N/A   Drizzle
10:35 PM 35.6 °F 30.7 °F 33.8 °F 93% 29.61 in 5.0 mi West 5.8 mph - N/A Rain Light Rain
10:55 PM 35.6 °F 30.7 °F 33.8 °F 93% 29.61 in 10.0 mi West 5.8 mph - N/A Rain Rain
11:15 PM 33.8 °F 29.6 °F 33.8 °F 100% 29.61 in 7.0 mi West 4.6 mph - N/A Rain Rain
11:35 PM 33.8 °F 29.6 °F 33.8 °F 100% 29.61 in 10.0 mi WNW 4.6 mph - N/A   Overcast
11:55 PM 33.8 °F 28.6 °F 33.8 °F 100% 29.61 in 5.0 mi West 5.8 mph - N/A Rain Light Rain